Fecha, hora, temperatura, viento dirección y velocidad, humedad y presión.

  • 19-03-2019 23:00:00 | -3.20°C | Norte |17.00 km/h | 96.00% | 817.10 hPa
  • 19-03-2019 22:00:00 | -2.70°C | Norte |19.00 km/h | 91.00% | 817.00 hPa
  • 19-03-2019 21:00:00 | -1.80°C | Norte |18.00 km/h | 85.00% | 816.80 hPa
  • 19-03-2019 20:00:00 | -1.00°C | Noroeste |17.00 km/h | 88.00% | 816.40 hPa
  • 19-03-2019 19:00:00 | 0.20°C | Norte |17.00 km/h | 81.00% | 816.10 hPa
  • 19-03-2019 18:00:00 | 1.90°C | Noroeste |16.00 km/h | 79.00% | 815.50 hPa
  • 19-03-2019 17:00:00 | 3.40°C | Noroeste |15.00 km/h | 65.00% | 815.70 hPa
  • 19-03-2019 16:00:00 | 4.00°C | Noroeste |17.00 km/h | 64.00% | 815.90 hPa
  • 19-03-2019 15:00:00 | 2.70°C | Norte |14.00 km/h | 70.00% | 815.80 hPa
  • 19-03-2019 14:00:00 | 3.20°C | Norte |17.00 km/h | 70.00% | 815.60 hPa
  • 19-03-2019 13:00:00 | 0.50°C | Norte |16.00 km/h | 87.00% | 816.00 hPa
  • 19-03-2019 12:00:00 | -1.10°C | Norte |18.00 km/h | 90.00% | 816.00 hPa
  • 19-03-2019 11:00:00 | 0.60°C | Norte |19.00 km/h | 81.00% | 815.30 hPa
  • 19-03-2019 10:00:00 | -1.80°C | Norte |13.00 km/h | 94.00% | 815.30 hPa
  • 19-03-2019 09:00:00 | -3.10°C | Norte |14.00 km/h | 99.00% | 814.90 hPa
  • 19-03-2019 08:00:00 | -3.70°C | Norte |16.00 km/h | 98.00% | 814.40 hPa
  • 19-03-2019 07:00:00 | -3.70°C | Norte |15.00 km/h | 95.00% | 814.50 hPa
  • 19-03-2019 06:00:00 | -3.70°C | Norte |16.00 km/h | 91.00% | 814.50 hPa
  • 19-03-2019 05:00:00 | -3.40°C | Norte |20.00 km/h | 84.00% | 814.40 hPa
  • 19-03-2019 04:00:00 | -2.30°C | Norte |19.00 km/h | 81.00% | 814.60 hPa
  • 19-03-2019 03:00:00 | -2.50°C | Norte |19.00 km/h | 86.00% | 814.90 hPa
  • 19-03-2019 02:00:00 | -2.10°C | Norte |21.00 km/h | 76.00% | 815.40 hPa
  • 19-03-2019 01:00:00 | -1.70°C | Norte |17.00 km/h | 75.00% | 815.60 hPa
  • 19-03-2019 00:00:00 | -1.40°C | Norte |15.00 km/h | 72.00% | 815.60 hPa
    • diseño web asturias Información sobre el estado de las mareas, altura de la marejada, temperatura del agua y otros datos de Gijón en Asturias.

      Surf Gijón